Time;durP1;ratioP1;P1;durP2;ratioP2;P2;SDS_P1;SDS_P2;PMS_P1;PMS_P2;Temp;Humidity;BMP_temperature;BMP_pressure;BME280_temperature;BME280_humidity;BME280_pressure;Samples;Min_cycle;Max_cycle;Signal;HPM_P1;HPM_P2
2023/10/16 00:01:13;;;;;;;8.88;5.20;;;3.30;99.90;;;;;;7591592;19;20027;-72
2023/10/16 00:03:48;;;;;;;10.93;5.60;;;3.20;99.90;;;;;;7587424;19;20018;-73
2023/10/16 00:06:20;;;;;;;11.55;5.07;;;3.20;99.90;;;;;;7589613;19;20013;-73
2023/10/16 00:08:59;;;;;;;7.57;4.78;;;3.20;99.90;;;;;;7586566;19;20093;-73
2023/10/16 00:11:33;;;;;;;10.25;5.00;;;3.20;99.90;;;;;;7588644;19;20092;-73
2023/10/16 00:14:23;;;;;;;6.50;4.90;;;3.20;99.90;;;;;;7594514;19;20022;-72
2023/10/16 00:16:57;;;;;;;7.93;5.13;;;3.20;99.90;;;;;;7577234;19;20110;-73
2023/10/16 00:19:33;;;;;;;8.75;5.00;;;3.20;99.90;;;;;;7594502;19;20022;-73
2023/10/16 00:22:18;;;;;;;7.75;4.90;;;3.10;99.90;;;;;;7586885;19;20019;-72
2023/10/16 00:24:51;;;;;;;7.70;4.97;;;3.10;99.90;;;;;;7590321;19;20022;-72
2023/10/16 00:27:23;;;;;;;6.05;4.35;;;3.00;99.90;;;;;;7586172;19;21178;-72
2023/10/16 00:29:56;;;;;;;11.13;5.82;;;2.90;99.90;;;;;;7587561;19;20018;-73
2023/10/16 00:32:30;;;;;;;7.13;4.60;;;2.90;99.90;;;;;;7580803;19;20025;-72
2023/10/16 00:35:08;;;;;;;8.10;5.18;;;2.90;99.90;;;;;;7581262;19;20018;-72
2023/10/16 00:37:41;;;;;;;6.97;4.85;;;2.90;99.90;;;;;;7590218;19;20582;-73
2023/10/16 00:40:26;;;;;;;7.85;4.68;;;3.00;99.90;;;;;;7590411;19;20014;-74
2023/10/16 00:43:20;;;;;;;5.45;3.92;;;3.00;99.90;;;;;;7594255;19;20369;-74
2023/10/16 00:46:05;;;;;;;9.75;4.05;;;3.00;99.90;;;;;;7587527;19;20023;-75
2023/10/16 00:48:39;;;;;;;8.07;4.25;;;3.00;99.90;;;;;;7587119;19;20018;-74
2023/10/16 00:51:13;;;;;;;7.35;4.72;;;2.90;99.90;;;;;;7585977;19;20696;-75
2023/10/16 00:53:52;;;;;;;7.85;4.82;;;2.90;99.90;;;;;;7590366;19;20390;-75
2023/10/16 00:56:27;;;;;;;8.30;4.40;;;3.00;99.90;;;;;;7586106;19;20026;-76
2023/10/16 00:59:00;;;;;;;8.40;5.22;;;2.90;99.90;;;;;;7587958;19;20018;-76
2023/10/16 01:01:33;;;;;;;6.70;4.35;;;2.80;99.90;;;;;;7584316;19;20014;-75
2023/10/16 01:04:06;;;;;;;10.88;4.45;;;2.70;99.90;;;;;;7585775;19;20084;-75
2023/10/16 01:06:41;;;;;;;10.80;5.82;;;2.80;99.90;;;;;;7591879;19;20030;-74
2023/10/16 01:09:22;;;;;;;5.60;4.30;;;2.80;99.90;;;;;;7592010;19;20021;-74
2023/10/16 01:11:57;;;;;;;6.90;5.00;;;2.80;99.90;;;;;;7590120;19;20019;-74
2023/10/16 01:14:30;;;;;;;9.15;4.45;;;2.80;99.90;;;;;;7593737;19;20026;-74
2023/10/16 01:17:03;;;;;;;9.27;4.70;;;2.80;99.90;;;;;;7592343;19;20017;-75
2023/10/16 01:19:37;;;;;;;16.63;4.75;;;2.70;99.90;;;;;;7586297;19;20014;-74
2023/10/16 01:22:13;;;;;;;7.78;4.60;;;2.80;99.90;;;;;;7587304;19;20011;-76
2023/10/16 01:24:46;;;;;;;8.10;4.80;;;2.80;99.90;;;;;;7586382;19;20482;-73
2023/10/16 01:27:29;;;;;;;8.50;4.65;;;2.70;99.90;;;;;;7579242;19;20044;-76
2023/10/16 01:30:05;;;;;;;8.02;4.63;;;2.70;99.90;;;;;;7576156;19;20231;-76
2023/10/16 01:32:40;;;;;;;7.60;4.57;;;2.80;99.90;;;;;;7585761;19;20032;-73
2023/10/16 01:35:13;;;;;;;7.05;4.22;;;2.70;99.90;;;;;;7585677;19;20015;-75
2023/10/16 01:37:46;;;;;;;6.68;4.75;;;2.70;99.90;;;;;;7583580;19;20021;-73
2023/10/16 01:40:22;;;;;;;;;;;2.70;99.90;;;;;;7575837;19;20010;-74
2023/10/16 01:42:54;;;;;;;8.00;4.15;;;2.60;99.90;;;;;;7587630;19;20340;-74
2023/10/16 01:45:30;;;;;;;6.43;4.03;;;2.50;99.90;;;;;;7577945;19;20018;-73
2023/10/16 01:48:04;;;;;;;8.93;4.75;;;2.50;99.90;;;;;;7584610;19;20074;-73
2023/10/16 01:50:39;;;;;;;7.35;4.00;;;2.40;99.90;;;;;;7592812;19;20014;-73
2023/10/16 01:53:15;;;;;;;7.45;4.50;;;2.40;99.90;;;;;;7591773;19;20836;-74
2023/10/16 01:55:51;;;;;;;7.95;4.50;;;2.40;99.90;;;;;;7585965;19;20011;-74
2023/10/16 01:58:30;;;;;;;9.88;4.60;;;2.40;99.90;;;;;;7580949;19;20022;-75
2023/10/16 02:01:03;;;;;;;7.57;5.07;;;2.30;99.90;;;;;;7589888;19;20014;-74
2023/10/16 02:03:37;;;;;;;4.88;4.05;;;2.30;99.90;;;;;;7586989;19;20014;-74
2023/10/16 02:06:11;;;;;;;6.85;4.68;;;2.40;99.90;;;;;;7594078;19;20515;-74
2023/10/16 02:08:46;;;;;;;8.88;4.70;;;2.40;99.90;;;;;;7587418;19;20014;-74
2023/10/16 02:11:19;;;;;;;8.48;5.20;;;2.30;99.90;;;;;;7584982;19;20014;-73
2023/10/16 02:13:52;;;;;;;7.43;5.10;;;2.20;99.90;;;;;;7583316;19;20045;-75
2023/10/16 02:16:27;;;;;;;5.15;4.00;;;2.20;99.90;;;;;;7587578;19;20014;-74
2023/10/16 02:19:00;;;;;;;7.80;4.28;;;2.30;99.90;;;;;;7581079;19;20014;-73
2023/10/16 02:21:33;;;;;;;6.03;3.80;;;2.30;99.90;;;;;;7592907;19;20014;-72
2023/10/16 02:24:06;;;;;;;7.28;4.43;;;2.40;99.90;;;;;;7587029;19;20017;-72
2023/10/16 02:26:57;;;;;;;7.47;4.40;;;2.30;99.90;;;;;;7590945;19;20854;-72
2023/10/16 02:29:31;;;;;;;5.53;3.97;;;2.10;99.90;;;;;;7586469;19;20094;-72
2023/10/16 02:32:04;;;;;;;8.75;5.13;;;2.00;99.90;;;;;;7563726;19;20114;-75
2023/10/16 02:34:36;;;;;;;7.57;4.57;;;1.90;99.90;;;;;;7571269;19;20048;-75
2023/10/16 02:37:11;;;;;;;7.50;4.85;;;2.30;99.90;;;;;;7584228;19;20041;-75
2023/10/16 02:39:50;;;;;;;7.82;4.97;;;1.90;99.90;;;;;;7577214;19;20087;-73
2023/10/16 02:42:26;;;;;;;5.80;3.85;;;2.00;99.90;;;;;;7568806;19;20128;-73
2023/10/16 02:44:59;;;;;;;5.15;3.95;;;2.00;99.90;;;;;;7580792;19;20029;-73
2023/10/16 02:47:32;;;;;;;5.85;3.88;;;1.90;99.90;;;;;;7583992;19;20463;-73
2023/10/16 02:50:08;;;;;;;5.25;3.53;;;2.00;99.90;;;;;;7591411;19;20025;-74
2023/10/16 02:52:40;;;;;;;9.23;4.30;;;2.00;99.90;;;;;;7585812;19;20079;-75
2023/10/16 02:55:14;;;;;;;6.33;4.33;;;2.00;99.90;;;;;;7583083;19;20021;-74
2023/10/16 02:57:46;;;;;;;6.70;4.10;;;2.00;99.90;;;;;;7582484;19;20051;-73
2023/10/16 03:00:24;;;;;;;6.60;4.38;;;2.10;99.90;;;;;;7591442;19;20026;-75
2023/10/16 03:02:57;;;;;;;8.23;4.47;;;2.10;99.90;;;;;;7591069;19;20455;-74
2023/10/16 03:05:30;;;;;;;4.93;3.55;;;2.10;99.90;;;;;;7588616;19;20018;-75
2023/10/16 03:08:02;;;;;;;7.20;3.88;;;2.00;99.90;;;;;;7583966;19;20466;-75
2023/10/16 03:10:36;;;;;;;7.70;4.30;;;2.10;99.90;;;;;;7584363;19;20037;-74
2023/10/16 03:13:09;;;;;;;7.40;4.00;;;2.00;99.90;;;;;;7596154;19;20361;-74
2023/10/16 03:15:48;;;;;;;6.95;3.90;;;2.00;99.90;;;;;;7588298;19;20657;-73
2023/10/16 03:18:22;;;;;;;5.68;3.63;;;1.90;99.90;;;;;;7591628;19;21820;-72
2023/10/16 03:21:05;;;;;;;5.72;3.95;;;1.90;99.90;;;;;;7601855;19;21080;-73
2023/10/16 03:23:43;;;;;;;8.07;5.13;;;2.00;99.90;;;;;;7590879;19;20018;-75
2023/10/16 03:26:25;;;;;;;8.65;4.50;;;2.00;99.90;;;;;;7600245;19;20010;-74
2023/10/16 03:29:02;;;;;;;9.40;4.53;;;1.90;99.90;;;;;;7592512;19;20029;-73
2023/10/16 03:31:39;;;;;;;6.35;4.07;;;1.90;99.90;;;;;;7592544;19;20467;-74
2023/10/16 03:34:12;;;;;;;6.45;4.30;;;1.90;99.90;;;;;;7600246;19;20026;-74
2023/10/16 03:36:44;;;;;;;5.75;3.97;;;1.90;99.90;;;;;;7572365;19;20014;-73
2023/10/16 03:39:19;;;;;;;7.00;4.30;;;1.90;99.90;;;;;;7574353;19;20014;-73
2023/10/16 03:41:51;;;;;;;6.80;4.20;;;1.90;99.90;;;;;;7580331;19;20010;-74
2023/10/16 03:44:26;;;;;;;6.70;3.90;;;1.80;99.90;;;;;;7579498;19;20018;-72
2023/10/16 03:46:59;;;;;;;5.22;3.72;;;1.80;99.90;;;;;;7580465;19;20019;-73
2023/10/16 03:49:31;;;;;;;9.02;4.22;;;1.70;99.90;;;;;;7577427;19;20021;-74
2023/10/16 03:52:07;;;;;;;6.75;4.10;;;1.70;99.90;;;;;;7583034;19;20022;-76
2023/10/16 03:54:41;;;;;;;5.88;3.97;;;1.70;99.90;;;;;;7578501;19;20015;-73
2023/10/16 03:57:14;;;;;;;6.70;3.83;;;1.60;99.90;;;;;;7579594;19;20025;-74
2023/10/16 03:59:49;;;;;;;8.32;4.05;;;1.70;99.90;;;;;;7581918;19;20054;-75
2023/10/16 04:02:23;;;;;;;6.00;3.45;;;1.60;99.90;;;;;;7587328;19;20010;-74
2023/10/16 04:04:58;;;;;;;5.50;3.85;;;1.70;99.90;;;;;;7579044;19;20017;-73
2023/10/16 04:07:31;;;;;;;6.00;4.28;;;1.60;99.90;;;;;;7564862;19;20094;-73
2023/10/16 04:10:21;;;;;;;;;;;1.70;99.90;;;;;;7569224;19;20018;-74
2023/10/16 04:12:54;;;;;;;6.60;4.18;;;1.70;99.90;;;;;;7563691;19;19931;-72
2023/10/16 04:26:29;;;;;;;6.82;3.92;;;1.40;99.90;;;;;;7565053;19;20018;-72
2023/10/16 04:45:24;;;;;;;9.82;5.35;;;1.50;99.90;;;;;;7580911;19;20026;-72
2023/10/16 04:50:40;;;;;;;7.68;5.15;;;1.30;99.90;;;;;;7581075;19;20023;-74
2023/10/16 04:53:47;;;;;;;7.50;4.20;;;1.40;99.90;;;;;;7573886;19;20047;-73
2023/10/16 04:59:47;;;;;;;9.55;5.45;;;1.30;99.90;;;;;;7564899;19;20019;-73
2023/10/16 05:02:33;;;;;;;5.85;4.35;;;1.30;99.90;;;;;;7562842;19;20034;-74
2023/10/16 05:08:31;;;;;;;7.30;3.83;;;1.30;99.90;;;;;;7559469;19;20388;-75
2023/10/16 05:13:56;;;;;;;6.57;3.95;;;1.40;99.90;;;;;;7578505;19;20014;-75
2023/10/16 05:16:33;;;;;;;6.88;4.32;;;1.40;99.90;;;;;;7567790;19;20006;-75
2023/10/16 06:16:02;;;;;;;15.93;10.02;;;1.70;99.90;;;;;;7593362;19;21121;-76
2023/10/16 06:18:36;;;;;;;14.40;9.07;;;1.70;99.90;;;;;;7592807;19;20030;-76
2023/10/16 06:21:08;;;;;;;12.90;8.02;;;1.80;99.90;;;;;;7594366;19;20018;-76
2023/10/16 06:23:48;;;;;;;15.50;7.95;;;1.80;99.90;;;;;;7593622;19;20059;-75
2023/10/16 06:26:26;;;;;;;10.30;6.38;;;1.80;99.90;;;;;;7605352;19;20653;-76
2023/10/16 06:28:59;;;;;;;11.77;6.28;;;1.80;99.90;;;;;;7593470;19;20014;-75
2023/10/16 06:31:35;;;;;;;11.13;5.68;;;1.80;99.90;;;;;;7602416;19;20036;-75
2023/10/16 06:34:11;;;;;;;11.07;6.32;;;1.80;99.90;;;;;;7607835;19;20014;-75
2023/10/16 06:36:44;;;;;;;8.40;5.90;;;1.80;99.90;;;;;;7594327;19;20018;-74
2023/10/16 06:39:29;;;;;;;9.57;6.57;;;1.90;99.90;;;;;;7611547;19;20011;-75
2023/10/16 06:42:03;;;;;;;11.13;6.63;;;1.90;99.90;;;;;;7593986;19;20014;-75
2023/10/16 06:44:42;;;;;;;13.55;6.80;;;2.00;99.90;;;;;;7595525;19;20029;-72
2023/10/16 06:47:15;;;;;;;13.43;7.97;;;2.00;99.90;;;;;;7602217;19;20886;-76
2023/10/16 06:49:49;;;;;;;11.65;7.72;;;2.00;99.90;;;;;;7604344;19;20026;-76
2023/10/16 06:52:21;;;;;;;13.30;7.95;;;2.10;99.90;;;;;;7592728;19;20019;-74
2023/10/16 06:54:53;;;;;;;10.23;6.30;;;2.20;99.90;;;;;;7606922;19;20022;-73
2023/10/16 06:57:26;;;;;;;15.15;8.48;;;2.20;99.90;;;;;;7609676;19;20538;-74
2023/10/16 06:59:58;;;;;;;15.02;8.27;;;2.30;99.90;;;;;;7606624;19;20014;-74
2023/10/16 07:02:33;;;;;;;10.82;6.47;;;2.40;99.90;;;;;;7609481;19;20022;-73
2023/10/16 07:05:06;;;;;;;11.40;6.80;;;2.40;99.90;;;;;;7605264;19;20015;-72
2023/10/16 07:07:39;;;;;;;14.68;7.05;;;2.60;99.90;;;;;;7605041;19;20090;-73
2023/10/16 07:10:13;;;;;;;13.35;6.80;;;2.70;99.90;;;;;;7605654;19;20033;-75
2023/10/16 07:13:02;;;;;;;14.80;8.35;;;2.80;99.90;;;;;;7605211;19;20070;-76
2023/10/16 07:15:35;;;;;;;16.85;7.70;;;2.90;99.90;;;;;;7610430;19;20508;-74
2023/10/16 07:18:13;;;;;;;11.65;7.00;;;3.00;99.90;;;;;;7602200;19;20523;-74
2023/10/16 07:21:20;;;;;;;13.90;7.60;;;3.20;99.90;;;;;;7603010;19;20043;-74
2023/10/16 07:23:45;;;;;;;13.77;7.70;;;3.20;99.90;;;;;;7596694;19;20026;-74
2023/10/16 07:26:17;;;;;;;9.93;7.13;;;3.30;99.90;;;;;;7603921;19;20014;-75
2023/10/16 07:28:50;;;;;;;12.93;8.32;;;3.50;99.90;;;;;;7602257;19;20019;-74
2023/10/16 07:31:22;;;;;;;13.65;7.72;;;3.50;99.90;;;;;;7609464;19;20054;-73
2023/10/16 07:34:04;;;;;;;13.18;7.63;;;3.60;99.90;;;;;;7604565;19;20055;-74
2023/10/16 07:36:36;;;;;;;11.95;7.80;;;3.80;99.90;;;;;;7607219;19;20369;-73
2023/10/16 07:39:09;;;;;;;12.30;7.95;;;3.90;99.90;;;;;;7601771;19;20023;-74
2023/10/16 07:41:43;;;;;;;11.70;7.78;;;4.00;99.90;;;;;;7604838;19;20996;-74
2023/10/16 07:44:15;;;;;;;16.02;9.85;;;4.10;99.90;;;;;;7602453;19;20010;-76
2023/10/16 07:46:50;;;;;;;12.43;8.48;;;4.20;99.90;;;;;;7600965;19;20534;-75
2023/10/16 07:49:25;;;;;;;11.15;8.05;;;4.30;99.90;;;;;;7609162;19;20037;-75
2023/10/16 07:51:59;;;;;;;12.48;8.40;;;4.40;99.90;;;;;;7599208;19;20056;-75
2023/10/16 07:54:36;;;;;;;10.38;7.57;;;4.50;99.90;;;;;;7606676;19;20015;-74
2023/10/16 07:57:09;;;;;;;11.45;6.93;;;4.50;99.90;;;;;;7596569;19;20024;-75
2023/10/16 07:59:43;;;;;;;11.57;8.38;;;4.50;99.90;;;;;;7609703;19;20779;-75
2023/10/16 08:02:17;;;;;;;13.88;8.77;;;4.60;99.90;;;;;;7597195;19;20018;-74
2023/10/16 08:04:56;;;;;;;18.02;8.18;;;4.50;99.90;;;;;;7602735;19;20022;-75
2023/10/16 08:07:46;;;;;;;12.73;8.70;;;4.50;99.90;;;;;;7601939;19;20466;-75
2023/10/16 08:10:40;;;;;;;45.28;10.13;;;4.40;99.90;;;;;;7598813;19;20019;-75
2023/10/16 08:13:13;;;;;;;49.45;9.82;;;4.40;99.90;;;;;;7603139;19;20097;-75
2023/10/16 08:15:45;;;;;;;34.90;9.55;;;4.40;99.90;;;;;;7602039;19;20074;-75
2023/10/16 08:18:19;;;;;;;40.25;10.13;;;4.30;99.90;;;;;;7603184;19;20114;-75
2023/10/16 08:21:00;;;;;;;;;;;4.30;99.90;;;;;;7597019;19;20070;-75
2023/10/16 08:23:37;;;;;;;22.15;9.38;;;4.40;99.90;;;;;;7605557;19;19926;-74
2023/10/16 08:26:27;;;;;;;17.45;9.57;;;4.50;99.90;;;;;;7601836;19;20043;-76
2023/10/16 08:34:41;;;;;;;16.45;10.27;;;4.70;99.90;;;;;;7602765;19;20018;-75
2023/10/16 08:37:14;;;;;;;17.90;10.65;;;4.80;99.90;;;;;;7600452;19;21023;-74
2023/10/16 08:39:49;;;;;;;20.35;10.85;;;4.90;99.90;;;;;;7604209;19;20097;-75
2023/10/16 08:42:22;;;;;;;14.15;10.18;;;5.00;99.90;;;;;;7603082;19;20097;-75
2023/10/16 08:47:46;;;;;;;15.65;10.45;;;5.00;99.90;;;;;;7598474;19;20431;-75
2023/10/16 08:50:24;;;;;;;16.23;10.38;;;5.10;99.90;;;;;;7598912;19;20024;-72
2023/10/16 08:52:58;;;;;;;17.73;11.00;;;5.30;99.90;;;;;;7601671;19;20034;-76
2023/10/16 08:55:31;;;;;;;18.65;10.35;;;5.30;99.90;;;;;;7596507;19;20037;-76
2023/10/16 08:58:05;;;;;;;15.90;11.05;;;5.50;99.90;;;;;;7591839;19;20604;-73
2023/10/16 09:00:38;;;;;;;17.83;11.57;;;5.70;99.90;;;;;;7600079;19;20026;-75
2023/10/16 09:03:11;;;;;;;15.23;10.02;;;5.80;99.90;;;;;;7592189;19;20018;-75
2023/10/16 09:05:43;;;;;;;14.82;10.15;;;6.00;99.90;;;;;;7596300;19;20105;-72
2023/10/16 09:08:16;;;;;;;13.35;8.80;;;6.20;99.90;;;;;;7586003;19;20086;-75
2023/10/16 09:10:48;;;;;;;15.02;9.57;;;6.30;99.90;;;;;;7592815;19;20014;-76
2023/10/16 09:13:26;;;;;;;12.23;9.13;;;6.40;99.90;;;;;;7595151;19;20522;-73
2023/10/16 09:16:00;;;;;;;11.52;8.38;;;6.60;99.90;;;;;;7594536;19;24952;-72
2023/10/16 09:18:34;;;;;;;14.87;9.40;;;6.70;99.90;;;;;;7591134;19;20039;-75
2023/10/16 09:21:13;;;;;;;13.50;8.52;;;6.60;99.90;;;;;;7599432;19;20094;-75
2023/10/16 09:23:51;;;;;;;13.07;7.53;;;6.50;99.90;;;;;;7605076;19;20021;-75
2023/10/16 09:26:28;;;;;;;14.27;8.48;;;6.60;99.90;;;;;;7600044;19;20010;-74
2023/10/16 09:29:05;;;;;;;13.27;7.07;;;6.70;99.90;;;;;;7601354;19;20106;-75
2023/10/16 09:31:37;;;;;;;10.75;7.68;;;6.70;99.90;;;;;;7601818;19;20683;-75
2023/10/16 09:34:16;;;;;;;10.52;7.10;;;6.70;99.90;;;;;;7596144;19;20043;-75
2023/10/16 09:37:14;;;;;;;10.35;7.13;;;6.80;99.90;;;;;;7599103;19;20013;-75
2023/10/16 09:39:48;;;;;;;11.38;7.18;;;6.80;99.90;;;;;;7601680;19;20019;-75
2023/10/16 09:42:24;;;;;;;11.90;7.43;;;7.00;99.90;;;;;;7601431;19;20014;-75
2023/10/16 09:45:00;;;;;;;13.98;7.60;;;7.20;99.90;;;;;;7596119;19;20103;-75
2023/10/16 09:47:48;;;;;;;11.77;6.80;;;7.30;99.90;;;;;;7608341;19;20824;-75
2023/10/16 09:50:24;;;;;;;9.73;6.80;;;7.30;99.90;;;;;;7607433;19;20018;-75
2023/10/16 09:52:56;;;;;;;17.58;7.05;;;7.40;99.90;;;;;;7607368;19;20011;-75
2023/10/16 09:55:38;;;;;;;11.25;6.50;;;7.50;99.90;;;;;;7610768;19;20018;-76
2023/10/16 09:58:11;;;;;;;9.90;6.03;;;7.60;99.90;;;;;;7609966;19;20015;-76
2023/10/16 10:00:46;;;;;;;9.95;5.28;;;7.70;99.90;;;;;;7609162;19;20047;-75
2023/10/16 10:03:19;;;;;;;8.27;5.05;;;7.80;99.90;;;;;;7609493;19;20010;-74
2023/10/16 10:11:57;;;;;;;7.85;4.88;;;7.90;99.90;;;;;;7603702;19;20019;-75
2023/10/16 10:14:46;;;;;;;8.32;5.05;;;8.10;99.90;;;;;;7607692;19;21067;-74
2023/10/16 10:17:20;;;;;;;7.45;5.10;;;8.20;99.90;;;;;;7607070;19;20592;-75
2023/10/16 10:19:55;;;;;;;9.57;5.20;;;8.30;99.90;;;;;;7610174;19;20025;-75
2023/10/16 10:22:35;;;;;;;11.52;5.80;;;8.40;99.90;;;;;;7608954;19;20154;-75
2023/10/16 10:25:22;;;;;;;8.40;4.85;;;8.50;99.90;;;;;;7605968;19;20022;-75
2023/10/16 10:28:09;;;;;;;8.27;5.07;;;8.60;99.90;;;;;;7607701;19;20499;-75
2023/10/16 10:30:45;;;;;;;8.40;4.57;;;8.70;99.90;;;;;;7610221;19;20014;-75
2023/10/16 10:33:42;;;;;;;9.10;5.30;;;8.80;99.90;;;;;;7610952;19;20864;-74
2023/10/16 10:36:32;;;;;;;16.50;5.72;;;8.90;99.90;;;;;;7609734;19;20022;-74
2023/10/16 10:39:21;;;;;;;6.78;4.97;;;8.90;99.90;;;;;;7604486;19;20458;-74
2023/10/16 10:42:08;;;;;;;9.07;5.15;;;8.90;99.90;;;;;;7608571;19;20019;-74
2023/10/16 10:45:17;;;;;;;9.73;5.72;;;9.00;99.90;;;;;;7599056;19;20022;-74
2023/10/16 10:47:54;;;;;;;9.52;4.57;;;9.10;99.90;;;;;;7596808;19;20023;-74
2023/10/16 10:50:28;;;;;;;8.68;4.65;;;9.30;99.90;;;;;;7599161;19;20014;-74
2023/10/16 10:53:06;;;;;;;;;;;9.40;99.90;;;;;;7596730;19;20018;-74
2023/10/16 10:55:55;;;;;;;11.70;4.38;;;9.40;99.90;;;;;;7602013;19;19926;-73
2023/10/16 10:58:37;;;;;;;9.85;4.18;;;9.40;99.90;;;;;;7594665;19;20129;-74
2023/10/16 11:01:26;;;;;;;7.13;3.10;;;9.50;99.90;;;;;;7600020;19;20045;-75
2023/10/16 11:04:01;;;;;;;10.50;3.92;;;9.70;99.90;;;;;;7602125;19;20467;-76
2023/10/16 11:06:48;;;;;;;10.27;3.95;;;9.80;99.90;;;;;;7594651;19;20369;-72
2023/10/16 11:09:26;;;;;;;5.53;3.22;;;10.10;99.90;;;;;;7610783;19;20021;-76
2023/10/16 11:12:00;;;;;;;7.00;3.88;;;10.40;99.90;;;;;;7608878;19;20015;-76
2023/10/16 11:14:36;;;;;;;11.25;3.42;;;10.60;99.90;;;;;;7608799;19;20014;-75
2023/10/16 11:17:09;;;;;;;4.90;3.20;;;11.40;99.90;;;;;;7589703;19;20368;-74
2023/10/16 11:19:47;;;;;;;6.53;3.28;;;11.90;99.90;;;;;;7582314;19;20011;-76
2023/10/16 11:22:27;;;;;;;5.65;3.30;;;12.80;99.90;;;;;;7593950;19;20022;-76
2023/10/16 11:24:59;;;;;;;6.55;3.00;;;13.70;99.90;;;;;;7587089;19;20014;-76
2023/10/16 11:27:33;;;;;;;4.97;2.83;;;14.50;99.40;;;;;;7586307;19;20010;-75
2023/10/16 11:30:11;;;;;;;6.00;2.78;;;15.40;95.90;;;;;;7592078;19;20014;-74
2023/10/16 11:32:46;;;;;;;4.57;2.28;;;16.20;95.70;;;;;;7591567;19;20022;-75
2023/10/16 11:35:19;;;;;;;4.55;2.35;;;16.70;92.60;;;;;;7586494;19;21157;-75
2023/10/16 11:38:04;;;;;;;6.68;1.90;;;17.20;90.70;;;;;;7569726;19;20603;-76
2023/10/16 11:40:39;;;;;;;4.13;2.05;;;17.20;88.90;;;;;;7591979;19;20018;-74
2023/10/16 11:43:11;;;;;;;5.65;2.30;;;17.60;84.70;;;;;;7585388;19;20015;-74
2023/10/16 11:45:53;;;;;;;6.10;2.60;;;17.40;83.70;;;;;;7585801;19;20014;-75
2023/10/16 11:51:15;;;;;;;5.50;2.38;;;16.30;86.80;;;;;;7574120;19;20099;-74
2023/10/16 11:53:47;;;;;;;7.53;2.08;;;15.30;90.10;;;;;;7582462;19;20033;-75
2023/10/16 11:56:19;;;;;;;5.35;3.13;;;14.40;91.70;;;;;;7585430;19;20095;-76
2023/10/16 11:58:54;;;;;;;10.07;2.90;;;13.90;93.00;;;;;;7567143;19;20855;-76
2023/10/16 12:01:28;;;;;;;4.00;2.10;;;14.00;93.20;;;;;;7576439;19;20689;-75
2023/10/16 12:04:19;;;;;;;10.90;3.55;;;13.90;91.90;;;;;;7593137;19;20380;-77
2023/10/16 12:06:52;;;;;;;8.05;3.22;;;13.20;94.90;;;;;;7596015;19;20033;-74
2023/10/16 12:09:27;;;;;;;6.35;3.00;;;13.00;96.50;;;;;;7598255;19;20042;-77
2023/10/16 12:12:00;;;;;;;5.45;3.10;;;12.80;95.50;;;;;;7595769;19;20029;-75
2023/10/16 12:14:37;;;;;;;8.05;3.90;;;12.60;97.00;;;;;;7581928;19;20018;-73
2023/10/16 12:17:13;;;;;;;9.00;4.68;;;12.50;97.90;;;;;;7593376;19;20376;-75
2023/10/16 12:19:47;;;;;;;7.45;4.80;;;12.20;97.60;;;;;;7594551;19;20047;-77
2023/10/16 12:22:22;;;;;;;6.57;3.95;;;13.00;98.30;;;;;;7595019;19;20029;-76
2023/10/16 12:24:56;;;;;;;8.93;4.32;;;13.10;98.00;;;;;;7567663;19;20010;-74
2023/10/16 12:27:29;;;;;;;7.20;3.80;;;12.80;97.30;;;;;;7581441;19;20006;-75
2023/10/16 12:30:01;;;;;;;8.35;3.90;;;12.40;98.10;;;;;;7588129;19;20014;-75
2023/10/16 12:32:34;;;;;;;5.72;3.25;;;12.00;97.60;;;;;;7588148;19;20014;-75
2023/10/16 12:35:11;;;;;;;7.80;4.35;;;12.00;98.90;;;;;;7574932;19;20019;-76
2023/10/16 12:37:45;;;;;;;8.05;4.30;;;11.90;99.30;;;;;;7572676;19;25092;-77
2023/10/16 12:40:27;;;;;;;5.70;4.00;;;11.80;99.90;;;;;;7582598;19;20006;-75
2023/10/16 12:43:00;;;;;;;7.47;3.97;;;11.60;98.70;;;;;;7578698;19;20022;-74
2023/10/16 12:45:33;;;;;;;9.90;4.13;;;11.30;99.20;;;;;;7589492;19;20354;-76
2023/10/16 12:48:07;;;;;;;7.85;3.90;;;11.40;99.20;;;;;;7579311;19;20018;-77
2023/10/16 12:50:40;;;;;;;5.30;3.95;;;11.40;99.20;;;;;;7583394;19;20037;-74
2023/10/16 12:53:23;;;;;;;6.47;3.83;;;11.30;99.20;;;;;;7578462;19;20018;-76
2023/10/16 12:55:58;;;;;;;7.80;3.50;;;11.30;99.90;;;;;;7583708;19;20014;-74
2023/10/16 12:58:30;;;;;;;7.95;3.15;;;11.30;99.90;;;;;;7579977;19;20029;-75
2023/10/16 13:01:10;;;;;;;6.45;3.22;;;11.30;99.40;;;;;;7581364;19;20488;-74
2023/10/16 13:03:45;;;;;;;6.28;3.17;;;11.10;99.10;;;;;;7576805;19;20109;-77
2023/10/16 13:06:17;;;;;;;5.75;3.50;;;11.20;98.60;;;;;;7581703;19;20174;-73
2023/10/16 13:08:50;;;;;;;6.88;3.08;;;11.20;98.80;;;;;;7556684;19;20014;-77
2023/10/16 13:11:22;;;;;;;4.47;3.05;;;11.30;98.90;;;;;;7559135;19;20010;-73
2023/10/16 13:13:55;;;;;;;5.78;3.00;;;11.30;99.00;;;;;;7563159;19;20213;-74
2023/10/16 13:16:30;;;;;;;4.97;3.00;;;11.70;99.50;;;;;;7539925;19;20029;-74
2023/10/16 13:19:04;;;;;;;4.75;2.92;;;12.60;97.30;;;;;;7555754;19;20018;-76
2023/10/16 13:21:41;;;;;;;5.75;3.10;;;12.90;96.30;;;;;;7558837;19;20093;-75
2023/10/16 13:24:16;;;;;;;6.65;3.20;;;12.70;96.40;;;;;;7556834;19;20014;-76
2023/10/16 13:26:50;;;;;;;4.00;3.00;;;12.60;96.30;;;;;;7548767;19;20048;-77
2023/10/16 13:29:23;;;;;;;11.15;3.40;;;;;;;;;;7550760;19;20843;-76
2023/10/16 13:32:00;;;;;;;6.03;3.80;;;;;;;;;;7556608;19;20654;-77
2023/10/16 13:34:33;;;;;;;4.80;2.85;;;;;;;;;;7561389;19;20053;-75
2023/10/16 13:37:08;;;;;;;3.53;2.60;;;;;;;;;;7543479;19;20015;-75
2023/10/16 13:39:43;;;;;;;4.40;2.43;;;;;;;;;;7554033;19;20024;-75
2023/10/16 13:42:16;;;;;;;5.55;1.90;;;;;;;;;;7579940;19;20053;-76
2023/10/16 13:44:48;;;;;;;2.75;1.73;;;13.40;95.80;;;;;;7550636;19;20102;-76
2023/10/16 13:47:21;;;;;;;5.90;2.00;;;25.80;54.40;;;;;;7560189;19;20026;-75
2023/10/16 13:49:53;;;;;;;3.33;1.80;;;24.90;51.80;;;;;;7569608;19;20094;-76
2023/10/16 13:52:32;;;;;;;2.60;1.80;;;24.70;50.90;;;;;;7553285;19;20026;-75
2023/10/16 13:55:12;;;;;;;3.72;1.63;;;25.40;50.50;;;;;;7551567;19;20978;-74
2023/10/16 13:57:47;;;;;;;4.50;1.70;;;;;;;;;;7542044;19;20089;-76
2023/10/16 14:00:28;;;;;;;4.72;1.50;;;25.30;50.00;;;;;;7517686;19;20018;-75
2023/10/16 14:03:10;;;;;;;3.33;1.90;;;25.90;44.90;;;;;;7557705;19;20059;-76
2023/10/16 14:05:48;;;;;;;3.80;1.60;;;26.00;46.40;;;;;;7534175;19;20155;-77
2023/10/16 14:08:36;;;;;;;4.05;1.90;;;;;;;;;;7544178;19;20007;-74
2023/10/16 14:11:11;;;;;;;2.47;1.60;;;26.30;45.40;;;;;;7570233;19;20992;-78
2023/10/16 14:13:44;;;;;;;3.45;1.67;;;25.60;42.80;;;;;;7557315;19;21053;-77
2023/10/16 14:16:20;;;;;;;1.98;1.77;;;26.00;43.60;;;;;;7545182;19;20629;-74
2023/10/16 14:18:53;;;;;;;4.05;1.95;;;25.50;45.30;;;;;;7552698;19;20010;-74
2023/10/16 14:21:25;;;;;;;5.80;2.35;;;25.60;44.90;;;;;;7555881;19;20015;-74
2023/10/16 14:23:57;;;;;;;3.55;2.30;;;25.30;45.70;;;;;;7562498;19;20022;-78
2023/10/16 14:26:30;;;;;;;3.53;2.10;;;25.20;45.60;;;;;;7544068;19;20110;-75
2023/10/16 14:29:03;;;;;;;4.20;1.90;;;24.10;46.30;;;;;;7549930;19;20015;-75
2023/10/16 14:31:36;;;;;;;3.50;2.17;;;21.90;50.00;;;;;;7553042;19;20006;-75
2023/10/16 14:34:09;;;;;;;6.53;2.40;;;20.30;52.30;;;;;;7549358;19;20018;-77
2023/10/16 14:36:41;;;;;;;4.68;2.40;;;19.00;54.90;;;;;;7547396;19;20026;-75
2023/10/16 14:39:14;;;;;;;5.07;2.40;;;18.40;56.70;;;;;;7571395;19;20014;-77
2023/10/16 14:41:47;;;;;;;3.35;2.42;;;17.50;57.60;;;;;;7551633;19;20018;-76
2023/10/16 14:44:23;;;;;;;4.72;2.30;;;16.80;60.40;;;;;;7566549;19;20018;-75
2023/10/16 14:46:57;;;;;;;7.10;3.10;;;16.00;62.10;;;;;;7565891;19;20726;-76
2023/10/16 14:49:30;;;;;;;3.85;2.08;;;15.20;63.30;;;;;;7568680;19;20021;-77
2023/10/16 14:52:03;;;;;;;5.68;2.92;;;14.10;66.70;;;;;;7581322;19;20102;-77
2023/10/16 14:54:35;;;;;;;5.10;2.75;;;13.60;68.10;;;;;;7549636;19;21142;-74
2023/10/16 14:57:08;;;;;;;7.20;3.20;;;13.10;69.70;;;;;;7568732;19;20021;-75
2023/10/16 14:59:40;;;;;;;6.20;3.70;;;12.70;71.40;;;;;;7570778;19;20488;-74
2023/10/16 15:02:12;;;;;;;6.60;3.90;;;12.40;73.10;;;;;;7566826;19;20065;-75
2023/10/16 15:04:45;;;;;;;5.65;4.13;;;12.20;74.70;;;;;;7568218;19;20013;-75
2023/10/16 15:07:21;;;;;;;6.75;4.05;;;11.90;75.60;;;;;;7570195;19;20639;-75
2023/10/16 15:09:54;;;;;;;8.45;4.15;;;11.70;77.20;;;;;;7574830;19;20006;-76
2023/10/16 15:12:26;;;;;;;4.93;3.30;;;11.60;78.30;;;;;;7580645;19;20716;-76
2023/10/16 15:14:59;;;;;;;7.22;4.15;;;11.50;78.70;;;;;;7576543;19;21116;-76
2023/10/16 15:17:31;;;;;;;8.15;4.53;;;11.40;80.30;;;;;;7585262;19;20019;-77
2023/10/16 15:20:07;;;;;;;8.07;4.28;;;11.10;80.80;;;;;;7593198;19;20030;-78
2023/10/16 15:22:44;;;;;;;6.40;4.22;;;10.80;81.90;;;;;;7590372;19;20015;-76
2023/10/16 15:25:16;;;;;;;6.00;4.72;;;10.70;83.80;;;;;;7603811;19;20022;-76
2023/10/16 15:27:49;;;;;;;7.30;3.97;;;10.70;83.60;;;;;;7586655;19;20019;-76
2023/10/16 15:30:21;;;;;;;8.25;4.45;;;10.60;84.20;;;;;;7578994;19;20014;-75
2023/10/16 15:32:54;;;;;;;6.72;4.43;;;10.60;84.60;;;;;;7560336;19;20021;-75